createdAt,value
2016-10-25T00:00:19.244Z,0
2016-10-25T00:01:19.264Z,0
2016-10-25T00:02:19.598Z,0
2016-10-25T00:03:19.300Z,0
2016-10-25T00:04:19.295Z,0
2016-10-25T00:05:19.332Z,0
2016-10-25T00:06:19.334Z,0
2016-10-25T00:07:19.344Z,0
2016-10-25T00:08:19.384Z,0
2016-10-25T00:09:19.380Z,0
2016-10-25T00:10:19.444Z,0
2016-10-25T00:11:19.408Z,0
2016-10-25T00:12:19.442Z,0
2016-10-25T00:13:19.453Z,0
2016-10-25T00:14:19.456Z,0
2016-10-25T00:15:19.485Z,0
2016-10-25T00:16:19.493Z,0
2016-10-25T00:17:19.495Z,0
2016-10-25T00:18:19.543Z,0
2016-10-25T00:19:19.538Z,0
2016-10-25T00:20:19.573Z,0
2016-10-25T00:21:19.585Z,0
2016-10-25T00:22:19.599Z,0
2016-10-25T00:23:19.648Z,0
2016-10-25T00:24:19.645Z,0
2016-10-25T00:25:19.649Z,0
2016-10-25T00:26:19.683Z,0
2016-10-25T00:27:19.683Z,0
2016-10-25T00:28:19.708Z,0
2016-10-25T00:29:19.718Z,0
2016-10-25T00:30:19.747Z,0
2016-10-25T00:31:19.751Z,0
2016-10-25T00:32:19.763Z,0
2016-10-25T00:33:19.785Z,0
2016-10-25T00:34:19.789Z,0
2016-10-25T00:35:19.810Z,0
2016-10-25T00:36:19.839Z,0
2016-10-25T00:37:19.855Z,0
2016-10-25T00:38:19.859Z,0
2016-10-25T00:39:19.878Z,0
2016-10-25T00:40:19.899Z,0
2016-10-25T00:41:19.949Z,0
2016-10-25T00:42:19.934Z,0
2016-10-25T00:43:19.948Z,0
2016-10-25T00:44:19.959Z,0
2016-10-25T00:45:19.981Z,0
2016-10-25T00:46:19.996Z,0
2016-10-25T00:47:20.019Z,0
2016-10-25T00:48:20.027Z,0
2016-10-25T00:49:20.046Z,0
2016-10-25T00:50:20.057Z,0
2016-10-25T00:51:20.066Z,0
2016-10-25T00:52:20.095Z,0
2016-10-25T00:53:20.115Z,0
2016-10-25T00:54:20.126Z,0
2016-10-25T00:55:20.148Z,0
2016-10-25T00:56:20.155Z,0
2016-10-25T00:57:20.180Z,0
2016-10-25T00:58:20.187Z,0
2016-10-25T00:59:20.224Z,0
2016-10-25T01:00:20.227Z,0
2016-10-25T01:01:20.234Z,0
2016-10-25T01:02:20.268Z,0
2016-10-25T01:03:20.325Z,0
2016-10-25T01:04:20.313Z,0
2016-10-25T01:05:20.315Z,0
2016-10-25T01:06:20.335Z,0
2016-10-25T01:07:20.360Z,0
2016-10-25T01:08:20.362Z,0
2016-10-25T01:09:20.384Z,0
2016-10-25T01:10:20.390Z,0
2016-10-25T01:11:20.435Z,0
2016-10-25T01:12:20.437Z,0
2016-10-25T01:13:20.434Z,0
2016-10-25T01:14:20.503Z,0
2016-10-25T01:15:20.484Z,0
2016-10-25T01:16:20.528Z,0
2016-10-25T01:17:20.519Z,0
2016-10-25T01:18:20.532Z,0
2016-10-25T01:19:20.539Z,0
2016-10-25T01:20:20.561Z,0
2016-10-25T01:21:20.582Z,0
2016-10-25T01:22:20.610Z,0
2016-10-25T01:23:20.615Z,0
2016-10-25T01:24:20.640Z,0
2016-10-25T01:25:20.662Z,0
2016-10-25T01:26:20.674Z,0
2016-10-25T01:27:20.673Z,0
2016-10-25T01:28:20.701Z,0
2016-10-25T01:29:20.709Z,0
2016-10-25T01:30:20.773Z,0
2016-10-25T01:31:20.741Z,0
2016-10-25T01:32:20.771Z,0
2016-10-25T01:33:20.784Z,0
2016-10-25T01:34:20.802Z,0
2016-10-25T01:35:20.799Z,0
2016-10-25T01:36:20.843Z,0
2016-10-25T01:37:20.857Z,0
2016-10-25T01:38:20.877Z,0
2016-10-25T01:39:20.890Z,0
2016-10-25T01:40:20.909Z,0
2016-10-25T01:41:20.917Z,0
2016-10-25T01:42:20.921Z,0
2016-10-25T01:43:20.943Z,0
2016-10-25T01:44:20.975Z,0
2016-10-25T01:45:20.989Z,0
2016-10-25T01:46:21.001Z,0
2016-10-25T01:47:21.017Z,0
2016-10-25T01:48:21.010Z,0
2016-10-25T01:49:21.050Z,0
2016-10-25T01:50:21.070Z,0
2016-10-25T01:51:21.087Z,0
2016-10-25T01:52:21.113Z,0
2016-10-25T01:53:21.133Z,0
2016-10-25T01:54:21.135Z,0
2016-10-25T01:55:21.154Z,0
2016-10-25T01:56:21.172Z,0
2016-10-25T01:57:21.190Z,0
2016-10-25T01:58:21.232Z,0
2016-10-25T01:59:21.220Z,0
2016-10-25T02:00:21.238Z,0
2016-10-25T02:01:21.251Z,0
2016-10-25T02:02:21.278Z,0
2016-10-25T02:03:21.284Z,0
2016-10-25T02:04:21.301Z,0
2016-10-25T02:05:21.335Z,0
2016-10-25T02:06:21.351Z,0
2016-10-25T02:07:21.357Z,0
2016-10-25T02:08:21.376Z,0
2016-10-25T02:09:21.404Z,0
2016-10-25T02:10:21.388Z,0
2016-10-25T02:11:21.416Z,0
2016-10-25T02:12:21.778Z,0
2016-10-25T02:13:21.446Z,0
2016-10-25T02:14:21.478Z,0
2016-10-25T02:15:21.480Z,0
2016-10-25T02:16:21.548Z,0
2016-10-25T02:17:21.527Z,0
2016-10-25T02:18:21.533Z,0
2016-10-25T02:19:21.590Z,0
2016-10-25T02:20:21.543Z,0
2016-10-25T02:21:21.607Z,0
2016-10-25T02:22:21.598Z,0
2016-10-25T02:23:21.614Z,0
2016-10-25T02:24:21.635Z,0
2016-10-25T02:25:21.660Z,0
2016-10-25T02:26:21.673Z,0
2016-10-25T02:27:21.700Z,0
2016-10-25T02:28:21.710Z,0
2016-10-25T02:29:21.736Z,0
2016-10-25T02:30:21.737Z,0
2016-10-25T02:31:21.758Z,0
2016-10-25T02:32:21.762Z,0
2016-10-25T02:33:21.804Z,0
2016-10-25T02:34:21.805Z,0
2016-10-25T02:35:21.830Z,0
2016-10-25T02:36:21.835Z,0
2016-10-25T02:37:21.850Z,0
2016-10-25T02:38:21.892Z,0
2016-10-25T02:39:21.889Z,0
2016-10-25T02:40:21.901Z,0
2016-10-25T02:41:21.962Z,0
2016-10-25T02:42:21.936Z,0
2016-10-25T02:43:21.965Z,0
2016-10-25T02:44:21.979Z,0
2016-10-25T02:45:22.008Z,0
2016-10-25T02:46:22.020Z,0
2016-10-25T02:47:22.033Z,0
2016-10-25T02:48:22.046Z,0
2016-10-25T02:49:22.064Z,0
2016-10-25T02:50:22.076Z,0
2016-10-25T02:51:22.095Z,0
2016-10-25T02:52:22.117Z,0
2016-10-25T02:53:22.139Z,0
2016-10-25T02:54:22.132Z,0
2016-10-25T02:55:22.179Z,0
2016-10-25T02:56:22.189Z,0
2016-10-25T02:57:22.181Z,0
2016-10-25T02:58:22.218Z,0
2016-10-25T02:59:22.243Z,0
2016-10-25T03:00:22.256Z,0
2016-10-25T03:01:22.286Z,0
2016-10-25T03:02:22.286Z,0
2016-10-25T03:03:22.307Z,0
2016-10-25T03:04:22.312Z,0
2016-10-25T03:05:22.329Z,0
2016-10-25T03:06:22.344Z,0
2016-10-25T03:07:22.368Z,0
2016-10-25T03:08:22.383Z,0
2016-10-25T03:09:22.407Z,0
2016-10-25T03:10:22.428Z,0
2016-10-25T03:11:22.456Z,0
2016-10-25T03:12:22.450Z,0
2016-10-25T03:13:22.463Z,0
2016-10-25T03:14:22.487Z,0
2016-10-25T03:15:22.517Z,0
2016-10-25T03:16:22.525Z,0
2016-10-25T03:17:22.541Z,0
2016-10-25T03:18:22.556Z,0
2016-10-25T03:19:22.591Z,0
2016-10-25T03:20:22.599Z,0
2016-10-25T03:21:22.637Z,0
2016-10-25T03:22:22.643Z,0
2016-10-25T03:23:22.635Z,0
2016-10-25T03:24:22.676Z,0
2016-10-25T03:25:22.680Z,0
2016-10-25T03:26:22.679Z,0
2016-10-25T03:27:22.725Z,0
2016-10-25T03:28:22.715Z,0
2016-10-25T03:29:22.738Z,0
2016-10-25T03:30:22.769Z,0
2016-10-25T03:31:22.791Z,0
2016-10-25T03:32:22.783Z,0
2016-10-25T03:33:22.831Z,0
2016-10-25T03:34:22.813Z,0
2016-10-25T03:35:22.834Z,0
2016-10-25T03:36:22.869Z,0
2016-10-25T03:37:22.895Z,0
2016-10-25T03:38:22.912Z,0
2016-10-25T03:39:22.916Z,0
2016-10-25T03:40:22.926Z,0
2016-10-25T03:41:22.946Z,0
2016-10-25T03:42:22.964Z,0
2016-10-25T03:43:22.994Z,0
2016-10-25T03:44:23.010Z,0
2016-10-25T03:45:23.034Z,0
2016-10-25T03:46:23.015Z,0
2016-10-25T03:47:23.048Z,0
2016-10-25T03:48:23.070Z,0
2016-10-25T03:49:23.091Z,0
2016-10-25T03:50:23.102Z,0
2016-10-25T03:51:23.119Z,0
2016-10-25T03:52:23.139Z,0
2016-10-25T03:53:23.138Z,0
2016-10-25T03:54:23.167Z,0
2016-10-25T03:55:23.193Z,0
2016-10-25T03:56:23.204Z,0
2016-10-25T03:57:23.231Z,0
2016-10-25T03:58:23.247Z,0
2016-10-25T03:59:23.253Z,0
2016-10-25T04:01:23.315Z,0
2016-10-25T04:02:23.293Z,0
2016-10-25T04:03:23.382Z,0
2016-10-25T04:04:23.348Z,0
2016-10-25T04:05:23.352Z,0
2016-10-25T04:06:23.404Z,0
2016-10-25T04:07:23.407Z,0
2016-10-25T04:08:23.414Z,0
2016-10-25T04:09:23.419Z,0
2016-10-25T04:10:23.453Z,0
2016-10-25T04:11:23.453Z,0
2016-10-25T04:12:23.461Z,0
2016-10-25T04:13:23.490Z,0
2016-10-25T04:14:23.515Z,0
2016-10-25T04:15:23.532Z,0
2016-10-25T04:16:23.554Z,0
2016-10-25T04:17:23.583Z,0
2016-10-25T04:18:23.575Z,0
2016-10-25T04:19:23.594Z,0
2016-10-25T04:20:23.634Z,0
2016-10-25T04:21:23.607Z,0
2016-10-25T04:22:23.656Z,0
2016-10-25T04:23:23.681Z,0
2016-10-25T04:24:23.669Z,0
2016-10-25T04:25:23.691Z,0
2016-10-25T04:26:23.728Z,0
2016-10-25T04:27:23.747Z,0
2016-10-25T04:28:23.753Z,0
2016-10-25T04:29:23.774Z,0
2016-10-25T04:30:23.793Z,0
2016-10-25T04:31:23.809Z,0
2016-10-25T04:32:23.832Z,0
2016-10-25T04:33:23.846Z,0
2016-10-25T04:34:23.847Z,0
2016-10-25T04:35:23.857Z,0
2016-10-25T04:36:23.883Z,0
2016-10-25T04:37:23.896Z,0
2016-10-25T04:38:23.937Z,0
2016-10-25T04:39:23.938Z,0
2016-10-25T04:40:23.956Z,0
2016-10-25T04:41:23.979Z,0
2016-10-25T04:42:23.991Z,0
2016-10-25T04:43:24.010Z,0
2016-10-25T04:44:24.029Z,0
2016-10-25T04:45:24.040Z,0
2016-10-25T04:46:24.060Z,0
2016-10-25T04:47:24.080Z,0
2016-10-25T04:48:24.087Z,0
2016-10-25T04:49:24.098Z,0
2016-10-25T04:50:24.129Z,0
2016-10-25T04:51:24.151Z,0
2016-10-25T04:52:24.171Z,0
2016-10-25T04:53:24.173Z,0
2016-10-25T04:54:24.192Z,0
2016-10-25T04:55:24.215Z,0
2016-10-25T04:56:24.238Z,0
2016-10-25T04:57:24.248Z,0
2016-10-25T04:58:24.277Z,0
2016-10-25T04:59:24.255Z,0
2016-10-25T05:00:24.300Z,0
2016-10-25T05:01:24.294Z,0
2016-10-25T05:02:24.331Z,0
2016-10-25T05:03:24.360Z,0
2016-10-25T05:04:24.376Z,0
2016-10-25T05:05:24.373Z,0
2016-10-25T05:06:24.392Z,0
2016-10-25T05:07:24.423Z,0
2016-10-25T05:08:24.441Z,0
2016-10-25T05:09:24.451Z,0
2016-10-25T05:10:24.453Z,0
2016-10-25T05:11:24.492Z,0
2016-10-25T05:12:24.500Z,0
2016-10-25T05:13:24.514Z,0
2016-10-25T05:14:24.526Z,0
2016-10-25T05:15:24.545Z,0
2016-10-25T05:16:24.579Z,0
2016-10-25T05:17:24.581Z,0
2016-10-25T05:18:24.592Z,0
2016-10-25T05:19:24.621Z,0
2016-10-25T05:20:24.626Z,0
2016-10-25T05:21:24.650Z,0
2016-10-25T05:22:24.684Z,0
2016-10-25T05:23:24.690Z,0
2016-10-25T05:24:24.710Z,0
2016-10-25T05:25:24.713Z,0
2016-10-25T05:26:24.742Z,0
2016-10-25T05:27:24.754Z,0
2016-10-25T05:28:24.775Z,0
2016-10-25T05:29:24.791Z,0
2016-10-25T05:30:24.808Z,0
2016-10-25T05:31:24.822Z,0
2016-10-25T05:32:24.829Z,0
2016-10-25T05:33:24.856Z,0
2016-10-25T05:34:24.875Z,0
2016-10-25T05:35:24.887Z,4
2016-10-25T05:36:24.911Z,0
2016-10-25T05:37:24.912Z,0
2016-10-25T05:38:24.945Z,0
2016-10-25T05:39:24.942Z,0
2016-10-25T05:40:24.960Z,0
2016-10-25T05:41:24.990Z,0
2016-10-25T05:42:24.998Z,0
2016-10-25T05:43:25.031Z,0
2016-10-25T05:44:25.039Z,0
2016-10-25T05:45:25.062Z,0
2016-10-25T05:46:25.067Z,0
2016-10-25T05:47:25.067Z,0
2016-10-25T05:48:25.096Z,0
2016-10-25T05:49:25.138Z,0
2016-10-25T05:50:25.135Z,0
2016-10-25T05:51:25.158Z,0
2016-10-25T05:52:25.181Z,4
2016-10-25T05:53:25.185Z,4
2016-10-25T05:54:25.213Z,4
2016-10-25T05:55:25.233Z,4
2016-10-25T05:56:25.234Z,0
2016-10-25T05:57:25.277Z,4
2016-10-25T05:58:25.271Z,4
2016-10-25T05:59:25.303Z,8
2016-10-25T06:00:25.310Z,8
2016-10-25T06:01:25.316Z,8
2016-10-25T06:02:25.341Z,4
2016-10-25T06:03:25.355Z,4
2016-10-25T06:04:25.377Z,8
2016-10-25T06:05:25.389Z,8
2016-10-25T06:06:25.395Z,8
2016-10-25T06:07:25.435Z,12
2016-10-25T06:08:25.442Z,16
2016-10-25T06:09:25.467Z,12
2016-10-25T06:10:25.484Z,16
2016-10-25T06:11:25.477Z,20
2016-10-25T06:12:25.503Z,20
2016-10-25T06:13:25.528Z,20
2016-10-25T06:14:25.523Z,20
2016-10-25T06:15:25.568Z,24
2016-10-25T06:16:25.567Z,24
2016-10-25T06:17:25.594Z,24
2016-10-25T06:18:25.599Z,24
2016-10-25T06:19:25.623Z,24
2016-10-25T06:20:25.656Z,20
2016-10-25T06:21:25.656Z,20
2016-10-25T06:22:25.678Z,24
2016-10-25T06:23:25.698Z,28
2016-10-25T06:24:25.723Z,36
2016-10-25T06:25:25.728Z,40
2016-10-25T06:26:25.729Z,36
2016-10-25T06:27:25.770Z,44
2016-10-25T06:28:25.779Z,48
2016-10-25T06:29:25.814Z,52
2016-10-25T06:30:25.814Z,56
2016-10-25T06:31:25.827Z,72
2016-10-25T06:32:25.839Z,80
2016-10-25T06:33:25.860Z,96
2016-10-25T06:34:25.887Z,112
2016-10-25T06:35:25.903Z,112
2016-10-25T06:36:25.917Z,104
2016-10-25T06:37:25.927Z,100
2016-10-25T06:38:25.937Z,120
2016-10-25T06:39:25.967Z,140
2016-10-25T06:40:25.984Z,136
2016-10-25T06:41:25.990Z,136
2016-10-25T06:42:26.018Z,164
2016-10-25T06:43:26.055Z,160
2016-10-25T06:44:26.075Z,164
2016-10-25T06:45:26.065Z,176
2016-10-25T06:46:26.063Z,152
2016-10-25T06:47:26.092Z,148
2016-10-25T06:48:26.099Z,144
2016-10-25T06:49:26.136Z,140
2016-10-25T06:50:26.138Z,160
2016-10-25T06:51:26.176Z,196
2016-10-25T06:52:26.189Z,192
2016-10-25T06:53:26.183Z,188
2016-10-25T06:54:26.201Z,172
2016-10-25T06:55:26.228Z,176
2016-10-25T06:56:26.286Z,172
2016-10-25T06:57:26.261Z,172
2016-10-25T06:58:26.284Z,184
2016-10-25T06:59:26.305Z,192
2016-10-25T07:00:26.323Z,200
2016-10-25T07:01:26.369Z,192
2016-10-25T07:02:26.344Z,192
2016-10-25T07:03:26.341Z,212
2016-10-25T07:04:26.364Z,240
2016-10-25T07:05:26.399Z,268
2016-10-25T07:06:26.459Z,304
2016-10-25T07:07:26.437Z,328
2016-10-25T07:08:26.450Z,328
2016-10-25T07:09:26.463Z,324
2016-10-25T07:10:26.481Z,340
2016-10-25T07:11:26.502Z,360
2016-10-25T07:12:26.502Z,364
2016-10-25T07:13:26.536Z,368
2016-10-25T07:14:26.550Z,368
2016-10-25T07:15:26.573Z,344
2016-10-25T07:16:26.596Z,352
2016-10-25T07:17:26.607Z,392
2016-10-25T07:18:26.626Z,452
2016-10-25T07:19:26.641Z,468
2016-10-25T07:20:26.667Z,472
2016-10-25T07:21:26.645Z,392
2016-10-25T07:22:26.749Z,324
2016-10-25T07:23:26.722Z,364
2016-10-25T07:24:26.720Z,448
2016-10-25T07:25:26.757Z,376
2016-10-25T07:26:26.760Z,428
2016-10-25T07:27:26.774Z,424
2016-10-25T07:28:26.800Z,400
2016-10-25T07:29:26.811Z,400
2016-10-25T07:30:26.822Z,396
2016-10-25T07:31:26.858Z,376
2016-10-25T07:32:26.845Z,356
2016-10-25T07:33:26.873Z,364
2016-10-25T07:34:26.907Z,368
2016-10-25T07:35:26.914Z,352
2016-10-25T07:36:26.914Z,336
2016-10-25T07:37:26.949Z,336
2016-10-25T07:38:26.952Z,328
2016-10-25T07:39:26.987Z,336
2016-10-25T07:40:26.988Z,372
2016-10-25T07:41:27.037Z,340
2016-10-25T07:42:27.043Z,288
2016-10-25T07:43:27.039Z,272
2016-10-25T07:44:27.064Z,316
2016-10-25T07:45:27.093Z,340
2016-10-25T07:46:27.089Z,356
2016-10-25T07:47:27.118Z,356
2016-10-25T07:48:27.181Z,364
2016-10-25T07:49:27.135Z,396
2016-10-25T07:50:27.167Z,468
2016-10-25T07:51:27.188Z,500
2016-10-25T07:52:27.214Z,528
2016-10-25T07:53:27.213Z,504
2016-10-25T07:54:27.282Z,504
2016-10-25T07:55:27.290Z,464
2016-10-25T07:56:27.311Z,436
2016-10-25T07:57:27.295Z,488
2016-10-25T07:58:27.297Z,540
2016-10-25T07:59:27.316Z,580
2016-10-25T08:00:27.339Z,560
2016-10-25T08:01:27.346Z,564
2016-10-25T08:02:27.379Z,640
2016-10-25T08:03:27.399Z,696
2016-10-25T08:04:27.422Z,700
2016-10-25T08:05:27.415Z,656
2016-10-25T08:06:27.434Z,588
2016-10-25T08:07:27.460Z,684
2016-10-25T08:08:27.474Z,728
2016-10-25T08:09:27.486Z,732
2016-10-25T08:10:27.517Z,740
2016-10-25T08:11:27.525Z,800
2016-10-25T08:12:28.028Z,760
2016-10-25T08:13:27.565Z,700
2016-10-25T08:14:27.562Z,716
2016-10-25T08:15:27.589Z,732
2016-10-25T08:16:27.605Z,744
2016-10-25T08:17:27.613Z,652
2016-10-25T08:18:27.637Z,612
2016-10-25T08:19:27.669Z,624
2016-10-25T08:20:27.681Z,652
2016-10-25T08:21:27.697Z,612
2016-10-25T08:22:27.711Z,544
2016-10-25T08:23:27.737Z,504
2016-10-25T08:24:27.740Z,500
2016-10-25T08:25:27.744Z,540
2016-10-25T08:26:27.782Z,620
2016-10-25T08:27:27.790Z,644
2016-10-25T08:28:27.808Z,596
2016-10-25T08:29:27.833Z,600
2016-10-25T08:30:27.833Z,604
2016-10-25T08:31:27.872Z,600
2016-10-25T08:32:27.867Z,624
2016-10-25T08:33:27.916Z,644
2016-10-25T08:34:27.912Z,612
2016-10-25T08:35:27.922Z,612
2016-10-25T08:36:27.944Z,596
2016-10-25T08:37:27.969Z,616
2016-10-25T08:38:27.977Z,620
2016-10-25T08:39:27.998Z,636
2016-10-25T08:40:28.017Z,616
2016-10-25T08:41:28.046Z,576
2016-10-25T08:42:28.058Z,668
2016-10-25T08:43:28.066Z,656
2016-10-25T08:44:28.131Z,660
2016-10-25T08:45:28.091Z,656
2016-10-25T08:46:28.116Z,524
2016-10-25T08:47:28.132Z,524
2016-10-25T08:48:28.159Z,544
2016-10-25T08:49:28.170Z,576
2016-10-25T08:50:28.183Z,572
2016-10-25T08:51:28.202Z,508
2016-10-25T08:52:28.224Z,532
2016-10-25T08:53:28.237Z,580
2016-10-25T08:54:28.258Z,628
2016-10-25T08:55:28.262Z,608
2016-10-25T08:56:28.296Z,612
2016-10-25T08:57:28.335Z,616
2016-10-25T08:58:28.296Z,664
2016-10-25T08:59:28.353Z,844
2016-10-25T09:00:28.341Z,964
2016-10-25T09:01:28.375Z,948
2016-10-25T09:02:28.398Z,880
2016-10-25T09:03:28.400Z,872
2016-10-25T09:04:28.406Z,896
2016-10-25T09:05:28.433Z,952
2016-10-25T09:06:28.453Z,832
2016-10-25T09:07:28.471Z,828
2016-10-25T09:08:28.480Z,776
2016-10-25T09:09:28.503Z,724
2016-10-25T09:10:28.519Z,620
2016-10-25T09:11:28.532Z,668
2016-10-25T09:12:28.556Z,844
2016-10-25T09:13:28.577Z,944
2016-10-25T09:14:28.592Z,972
2016-10-25T09:15:28.612Z,932
2016-10-25T09:16:28.625Z,920
2016-10-25T09:17:28.630Z,868
2016-10-25T09:18:28.659Z,1116
2016-10-25T09:19:28.677Z,1424
2016-10-25T09:20:28.676Z,1364
2016-10-25T09:21:28.684Z,1084
2016-10-25T09:22:28.712Z,1172
2016-10-25T09:23:28.740Z,1036
2016-10-25T09:24:28.758Z,1068
2016-10-25T09:25:28.774Z,1012
2016-10-25T09:26:28.792Z,1084
2016-10-25T09:27:28.788Z,1248
2016-10-25T09:28:28.818Z,1324
2016-10-25T09:29:28.831Z,1396
2016-10-25T09:30:28.873Z,1380
2016-10-25T09:31:28.876Z,1396
2016-10-25T09:32:28.875Z,1372
2016-10-25T09:33:28.884Z,1280
2016-10-25T09:34:28.928Z,1044
2016-10-25T09:35:28.936Z,980
2016-10-25T09:36:28.943Z,1036
2016-10-25T09:37:28.967Z,1048
2016-10-25T09:38:28.994Z,1116
2016-10-25T09:39:28.997Z,1204
2016-10-25T09:40:29.001Z,1216
2016-10-25T09:41:29.016Z,1156
2016-10-25T09:42:29.025Z,1104
2016-10-25T09:43:29.075Z,1068
2016-10-25T09:44:29.071Z,1124
2016-10-25T09:45:29.087Z,1160
2016-10-25T09:46:29.115Z,1148
2016-10-25T09:47:29.114Z,1128
2016-10-25T09:48:29.144Z,1112
2016-10-25T09:49:29.191Z,1140
2016-10-25T09:50:29.181Z,1108
2016-10-25T09:51:29.200Z,960
2016-10-25T09:52:29.216Z,1004
2016-10-25T09:53:29.236Z,992
2016-10-25T09:54:29.245Z,964
2016-10-25T09:55:29.236Z,928
2016-10-25T09:56:29.292Z,932
2016-10-25T09:57:29.301Z,928
2016-10-25T09:58:29.299Z,912
2016-10-25T09:59:29.306Z,916
2016-10-25T10:00:29.336Z,924
2016-10-25T10:01:29.408Z,888
2016-10-25T10:02:29.380Z,864
2016-10-25T10:03:29.384Z,888
2016-10-25T10:04:29.407Z,872
2016-10-25T10:05:29.425Z,900
2016-10-25T10:06:29.430Z,848
2016-10-25T10:07:29.462Z,796
2016-10-25T10:08:29.475Z,792
2016-10-25T10:09:29.497Z,772
2016-10-25T10:10:29.543Z,768
2016-10-25T10:11:29.526Z,832
2016-10-25T10:12:29.535Z,764
2016-10-25T10:13:29.605Z,688
2016-10-25T10:14:29.551Z,732
2016-10-25T10:15:29.580Z,764
2016-10-25T10:16:29.617Z,732
2016-10-25T10:17:29.635Z,724
2016-10-25T10:18:29.672Z,732
2016-10-25T10:19:29.635Z,736
2016-10-25T10:20:29.697Z,768
2016-10-25T10:21:29.679Z,784
2016-10-25T10:22:29.689Z,780
2016-10-25T10:23:29.752Z,764
2016-10-25T10:24:29.748Z,776
2016-10-25T10:25:29.795Z,740
2016-10-25T10:26:29.774Z,752
2016-10-25T10:27:29.817Z,780
2016-10-25T10:28:29.805Z,772
2016-10-25T10:29:29.819Z,752
2016-10-25T10:30:29.833Z,772
2016-10-25T10:31:29.857Z,764
2016-10-25T10:32:29.873Z,712
2016-10-25T10:33:29.891Z,724
2016-10-25T10:34:29.940Z,796
2016-10-25T10:35:29.914Z,856
2016-10-25T10:36:29.921Z,1036
2016-10-25T10:37:29.949Z,1176
2016-10-25T10:38:29.975Z,1356
2016-10-25T10:39:29.976Z,1508
2016-10-25T10:40:30.005Z,1468
2016-10-25T10:41:30.015Z,1304
2016-10-25T10:42:30.039Z,1200
2016-10-25T10:43:30.025Z,1052
2016-10-25T10:44:30.076Z,948
2016-10-25T10:45:30.088Z,912
2016-10-25T10:46:30.096Z,904
2016-10-25T10:47:30.121Z,920
2016-10-25T10:48:30.135Z,972
2016-10-25T10:49:30.182Z,1024
2016-10-25T10:50:30.181Z,1096
2016-10-25T10:51:30.161Z,1300
2016-10-25T10:52:30.191Z,1352
2016-10-25T10:53:30.211Z,1236
2016-10-25T10:54:30.218Z,1272
2016-10-25T10:55:30.246Z,1316
2016-10-25T10:56:30.267Z,1372
2016-10-25T10:57:30.284Z,1408
2016-10-25T10:58:30.298Z,1440
2016-10-25T10:59:30.303Z,1468
2016-10-25T11:00:30.324Z,1412
2016-10-25T11:01:30.337Z,1272
2016-10-25T11:02:30.367Z,1128
2016-10-25T11:03:30.414Z,1048
2016-10-25T11:04:30.400Z,1032
2016-10-25T11:05:30.405Z,1104
2016-10-25T11:06:30.435Z,1152
2016-10-25T11:07:30.432Z,1228
2016-10-25T11:08:30.452Z,1104
2016-10-25T11:09:30.474Z,1028
2016-10-25T11:10:30.478Z,1060
2016-10-25T11:11:30.515Z,1148
2016-10-25T11:12:30.537Z,1304
2016-10-25T11:13:30.544Z,1492
2016-10-25T11:14:30.562Z,1560
2016-10-25T11:15:30.576Z,1412
2016-10-25T11:16:30.592Z,1588
2016-10-25T11:17:30.596Z,1556
2016-10-25T11:18:30.612Z,1640
2016-10-25T11:19:30.655Z,1700
2016-10-25T11:20:30.644Z,1784
2016-10-25T11:21:30.669Z,1676
2016-10-25T11:22:30.681Z,1564
2016-10-25T11:23:30.709Z,1676
2016-10-25T11:24:30.735Z,1756
2016-10-25T11:25:30.727Z,1736
2016-10-25T11:26:30.746Z,1716
2016-10-25T11:27:30.787Z,1672
2016-10-25T11:28:30.827Z,1672
2016-10-25T11:29:30.798Z,1612
2016-10-25T11:30:30.828Z,1708
2016-10-25T11:31:30.838Z,1668
2016-10-25T11:32:30.858Z,1784
2016-10-25T11:33:30.858Z,1872
2016-10-25T11:34:30.879Z,1796
2016-10-25T11:35:30.903Z,1632
2016-10-25T11:36:30.945Z,1520
2016-10-25T11:37:30.929Z,1424
2016-10-25T11:38:30.952Z,1428
2016-10-25T11:39:30.979Z,1460
2016-10-25T11:40:30.985Z,1532
2016-10-25T11:41:31.011Z,1576
2016-10-25T11:42:30.999Z,1536
2016-10-25T11:43:31.041Z,1536
2016-10-25T11:44:31.040Z,1500
2016-10-25T11:45:31.054Z,1396
2016-10-25T11:46:31.078Z,1396
2016-10-25T11:47:31.086Z,1460
2016-10-25T11:48:31.101Z,1524
2016-10-25T11:49:31.131Z,1648
2016-10-25T11:50:31.156Z,1668
2016-10-25T11:51:31.174Z,1568
2016-10-25T11:52:31.171Z,1372
2016-10-25T11:53:31.196Z,1360
2016-10-25T11:54:31.213Z,1268
2016-10-25T11:55:31.229Z,1132
2016-10-25T11:56:31.238Z,1044
2016-10-25T11:57:31.275Z,1084
2016-10-25T11:58:31.268Z,1172
2016-10-25T11:59:31.277Z,1272
2016-10-25T12:00:31.323Z,1272
2016-10-25T12:01:31.337Z,1280
2016-10-25T12:02:31.346Z,1236
2016-10-25T12:03:31.366Z,1260
2016-10-25T12:04:31.379Z,1228
2016-10-25T12:05:31.400Z,1220
2016-10-25T12:06:31.418Z,1256
2016-10-25T12:07:31.422Z,1404
2016-10-25T12:08:31.450Z,1588
2016-10-25T12:09:31.458Z,1636
2016-10-25T12:10:31.490Z,1628
2016-10-25T12:11:31.493Z,1700
2016-10-25T12:12:31.495Z,1768
2016-10-25T12:13:31.517Z,1800
2016-10-25T12:14:31.553Z,1768
2016-10-25T12:15:31.562Z,1608
2016-10-25T12:16:31.593Z,1400
2016-10-25T12:17:31.613Z,1292
2016-10-25T12:18:31.635Z,1248
2016-10-25T12:19:31.626Z,1284
2016-10-25T12:20:31.681Z,1308
2016-10-25T12:21:31.647Z,1304
2016-10-25T12:22:31.681Z,1364
2016-10-25T12:23:31.684Z,1356
2016-10-25T12:24:31.716Z,1336
2016-10-25T12:25:31.730Z,1296
2016-10-25T12:26:31.747Z,1300
2016-10-25T12:27:31.783Z,1248
2016-10-25T12:28:31.776Z,1292
2016-10-25T12:29:31.781Z,1276
2016-10-25T12:30:31.807Z,1240
2016-10-25T12:31:31.833Z,1228
2016-10-25T12:32:31.848Z,1192
2016-10-25T12:33:31.906Z,1168
2016-10-25T12:34:31.867Z,1128
2016-10-25T12:35:31.889Z,1240
2016-10-25T12:36:31.902Z,1236
2016-10-25T12:37:31.923Z,1160
2016-10-25T12:38:31.947Z,1132
2016-10-25T12:39:31.963Z,1060
2016-10-25T12:40:31.977Z,1108
2016-10-25T12:41:31.997Z,1020
2016-10-25T12:42:32.012Z,1012
2016-10-25T12:43:32.069Z,1020
2016-10-25T12:44:32.061Z,1032
2016-10-25T12:45:32.071Z,1064
2016-10-25T12:46:32.075Z,1028
2016-10-25T12:47:32.080Z,912
2016-10-25T12:48:32.121Z,864
2016-10-25T12:49:32.121Z,844
2016-10-25T12:50:32.145Z,820
2016-10-25T12:51:32.161Z,848
2016-10-25T12:52:32.193Z,852
2016-10-25T12:53:32.199Z,872
2016-10-25T12:54:32.246Z,872
2016-10-25T12:55:32.209Z,852
2016-10-25T12:56:32.247Z,828
2016-10-25T12:57:32.246Z,852
2016-10-25T12:58:32.275Z,864
2016-10-25T12:59:32.284Z,856
2016-10-25T13:00:32.299Z,836
2016-10-25T13:01:32.313Z,788
2016-10-25T13:02:32.337Z,736
2016-10-25T13:03:32.351Z,740
2016-10-25T13:04:32.358Z,728
2016-10-25T13:05:32.397Z,752
2016-10-25T13:06:32.406Z,776
2016-10-25T13:07:32.434Z,768
2016-10-25T13:08:32.427Z,832
2016-10-25T13:09:32.456Z,924
2016-10-25T13:10:32.460Z,992
2016-10-25T13:11:32.487Z,1028
2016-10-25T13:12:32.512Z,1060
2016-10-25T13:13:32.536Z,1152
2016-10-25T13:14:32.537Z,1140
2016-10-25T13:15:32.562Z,1072
2016-10-25T13:16:32.581Z,976
2016-10-25T13:17:32.592Z,908
2016-10-25T13:18:32.605Z,864
2016-10-25T13:19:32.623Z,888
2016-10-25T13:20:32.683Z,904
2016-10-25T13:21:32.654Z,932
2016-10-25T13:22:32.667Z,900
2016-10-25T13:23:32.676Z,844
2016-10-25T13:24:32.704Z,840
2016-10-25T13:25:32.706Z,836
2016-10-25T13:26:32.788Z,868
2016-10-25T13:27:32.764Z,876
2016-10-25T13:28:32.777Z,860
2016-10-25T13:29:32.792Z,796
2016-10-25T13:30:32.801Z,816
2016-10-25T13:31:32.823Z,844
2016-10-25T13:32:32.880Z,828
2016-10-25T13:33:32.862Z,840
2016-10-25T13:34:32.911Z,816
2016-10-25T13:35:32.884Z,788
2016-10-25T13:36:32.942Z,736
2016-10-25T13:37:32.946Z,708
2016-10-25T13:38:32.944Z,696
2016-10-25T13:39:32.951Z,640
2016-10-25T13:40:32.956Z,704
2016-10-25T13:41:32.980Z,724
2016-10-25T13:42:32.986Z,704
2016-10-25T13:43:33.037Z,680
2016-10-25T13:44:33.030Z,668
2016-10-25T13:45:33.055Z,652
2016-10-25T13:46:33.062Z,652
2016-10-25T13:47:33.085Z,580
2016-10-25T13:48:33.105Z,524
2016-10-25T13:49:33.104Z,500
2016-10-25T13:50:33.139Z,500
2016-10-25T13:51:33.152Z,484
2016-10-25T13:52:33.179Z,488
2016-10-25T13:53:33.168Z,480
2016-10-25T13:54:33.228Z,488
2016-10-25T13:55:33.214Z,524
2016-10-25T13:56:33.226Z,524
2016-10-25T13:57:33.235Z,568
2016-10-25T13:58:33.253Z,572
2016-10-25T13:59:33.287Z,588
2016-10-25T14:00:33.288Z,580
2016-10-25T14:01:33.303Z,544
2016-10-25T14:02:33.329Z,512
2016-10-25T14:03:33.331Z,480
2016-10-25T14:04:33.356Z,432
2016-10-25T14:05:33.371Z,396
2016-10-25T14:06:33.424Z,384
2016-10-25T14:07:33.413Z,396